Dunlow, West Virginia
Current Conditions -  °F | °C
As of 1:35 PM on Saturday 25 Oct 2014 (Local Time) from KSJS Reporting Station
Overcast Overcast  
Wind Chill: 63°   Ceiling: 6000
Heat Index: 63°   Visibility: 10mi
Dew Point: 49°   Wind: 3mph
Humidity: 61%   Direction: 240°WSW
Pressure: 30.02"   Gusts: NA
Location:  38.02°N, 82.43°W
Report Text: KSJS 251735Z AUTO 24003KT 10SM SCT050 OVC060 17/10 A3002 RMK AO2 T01710096
Loading
Personal Weather Stations






























Interactive Weather Map
Tropical Storm Tracking
New forecast layout! Learn more

10-Day Weather Forecast

Advertisements
Track Severe Weather on mobile